createdAt,value
2022-12-19T00:01:36.929Z,-4.30
2022-12-19T00:04:09.280Z,-4.20
2022-12-19T00:06:39.509Z,-4.10
2022-12-19T00:09:12.400Z,-4.10
2022-12-19T00:11:40.076Z,-4.10
2022-12-19T00:14:07.372Z,-4.20
2022-12-19T00:16:34.329Z,-4.20
2022-12-19T00:19:02.010Z,-4.20
2022-12-19T00:21:32.913Z,-4.20
2022-12-19T00:24:20.019Z,-4.10
2022-12-19T00:26:50.475Z,-4.00
2022-12-19T00:29:17.760Z,-4.00
2022-12-19T00:31:45.784Z,-4.00
2022-12-19T00:34:14.682Z,-4.00
2022-12-19T00:36:41.619Z,-4.00
2022-12-19T00:39:10.303Z,-4.10
2022-12-19T00:41:41.970Z,-4.10
2022-12-19T00:44:15.583Z,-4.20
2022-12-19T00:46:42.636Z,-4.20
2022-12-19T00:49:13.892Z,-4.30
2022-12-19T00:51:40.747Z,-4.30
2022-12-19T00:54:09.699Z,-4.40
2022-12-19T00:56:38.238Z,-4.30
2022-12-19T00:59:07.577Z,-4.20
2022-12-19T01:01:37.443Z,-4.20
2022-12-19T01:06:53.783Z,-4.20
2022-12-19T01:09:22.656Z,-4.30
2022-12-19T01:12:08.390Z,-4.30
2022-12-19T01:14:35.526Z,-4.20
2022-12-19T01:17:02.524Z,-4.20
2022-12-19T01:19:29.412Z,-4.20
2022-12-19T01:21:56.343Z,-4.20
2022-12-19T01:24:24.002Z,-4.20
2022-12-19T01:26:54.076Z,-4.30
2022-12-19T01:29:21.273Z,-4.30
2022-12-19T01:31:48.204Z,-4.30
2022-12-19T01:34:15.096Z,-4.40
2022-12-19T01:36:41.936Z,-4.40
2022-12-19T01:39:08.764Z,-4.40
2022-12-19T01:41:37.348Z,-4.50
2022-12-19T01:44:06.981Z,-4.40
2022-12-19T01:46:38.541Z,-4.40
2022-12-19T01:49:09.901Z,-4.40
2022-12-19T01:51:43.469Z,-4.40
2022-12-19T01:54:15.089Z,-4.30
2022-12-19T01:56:47.423Z,-4.30
2022-12-19T01:59:20.789Z,-4.30
2022-12-19T02:01:51.783Z,-4.30
2022-12-19T02:04:23.586Z,-4.30
2022-12-19T02:06:51.903Z,-4.30
2022-12-19T02:09:19.247Z,-4.30
2022-12-19T02:11:46.382Z,-4.30
2022-12-19T02:14:13.926Z,-4.30
2022-12-19T02:17:07.135Z,-4.30
2022-12-19T02:19:55.954Z,-4.30
2022-12-19T02:22:26.513Z,-4.30
2022-12-19T02:25:19.836Z,-4.30
2022-12-19T02:28:04.793Z,-4.30
2022-12-19T02:30:51.780Z,-4.30
2022-12-19T02:33:32.883Z,-4.30
2022-12-19T02:36:21.953Z,-4.40
2022-12-19T02:38:58.133Z,-4.40
2022-12-19T02:41:43.174Z,-4.40
2022-12-19T02:44:21.182Z,-4.40
2022-12-19T02:46:50.526Z,-4.40
2022-12-19T02:49:17.865Z,-4.40
2022-12-19T02:51:51.649Z,-4.40
2022-12-19T02:54:18.795Z,-4.50
2022-12-19T02:57:24.248Z,-4.40
2022-12-19T03:00:06.907Z,-4.40
2022-12-19T03:03:08.007Z,-4.30
2022-12-19T03:06:02.808Z,-4.30
2022-12-19T03:08:52.360Z,-4.20
2022-12-19T03:11:22.380Z,-4.10
2022-12-19T03:14:00.037Z,-4.10
2022-12-19T03:16:27.127Z,-4.00
2022-12-19T03:18:54.655Z,-4.00
2022-12-19T03:21:36.314Z,-4.00
2022-12-19T03:24:05.184Z,-4.10
2022-12-19T03:26:54.544Z,-4.00
2022-12-19T03:29:43.455Z,-4.00
2022-12-19T03:32:14.183Z,-4.10
2022-12-19T03:35:03.004Z,-4.00
2022-12-19T03:37:33.579Z,-4.00
2022-12-19T03:40:08.727Z,-4.00
2022-12-19T03:42:57.002Z,-4.10
2022-12-19T03:45:33.190Z,-4.10
2022-12-19T03:48:07.804Z,-4.00
2022-12-19T03:51:00.735Z,-4.00
2022-12-19T03:53:51.689Z,-4.00
2022-12-19T03:56:34.541Z,-4.00
2022-12-19T03:59:08.515Z,-4.00
2022-12-19T04:01:36.226Z,-4.00
2022-12-19T04:04:05.188Z,-4.00
2022-12-19T04:06:34.593Z,-4.10
2022-12-19T04:09:02.281Z,-4.10
2022-12-19T04:11:34.985Z,-4.00
2022-12-19T04:14:07.447Z,-4.00
2022-12-19T04:16:56.470Z,-4.00
2022-12-19T04:20:02.416Z,-4.00
2022-12-19T04:22:37.265Z,-3.90
2022-12-19T04:25:08.027Z,-3.90
2022-12-19T04:27:38.579Z,-3.80
2022-12-19T04:30:08.936Z,-3.80
2022-12-19T04:32:36.854Z,-3.90
2022-12-19T04:35:03.952Z,-3.90
2022-12-19T04:37:31.427Z,-3.90
2022-12-19T04:39:58.823Z,-3.90
2022-12-19T04:42:25.633Z,-3.90
2022-12-19T04:44:52.456Z,-4.00
2022-12-19T04:47:19.510Z,-4.00
2022-12-19T04:49:46.446Z,-4.00
2022-12-19T04:52:15.204Z,-4.10
2022-12-19T04:54:42.123Z,-4.10
2022-12-19T04:57:09.249Z,-4.10
2022-12-19T04:59:36.272Z,-4.10
2022-12-19T05:02:03.413Z,-4.10
2022-12-19T05:04:30.337Z,-4.00
2022-12-19T05:06:57.718Z,-3.90
2022-12-19T05:09:25.737Z,-4.00
2022-12-19T05:11:52.639Z,-3.90
2022-12-19T05:14:19.530Z,-3.90
2022-12-19T05:16:46.343Z,-3.90
2022-12-19T05:19:13.242Z,-3.90
2022-12-19T05:21:41.130Z,-3.90
2022-12-19T05:24:07.992Z,-3.90
2022-12-19T05:26:34.860Z,-3.80
2022-12-19T05:29:01.641Z,-3.80
2022-12-19T05:31:28.572Z,-3.80
2022-12-19T05:33:55.421Z,-3.80
2022-12-19T05:36:24.515Z,-3.70
2022-12-19T05:38:54.655Z,-3.80
2022-12-19T05:41:21.831Z,-3.70
2022-12-19T05:43:54.704Z,-3.70
2022-12-19T05:46:23.349Z,-3.60
2022-12-19T05:48:50.630Z,-3.70
2022-12-19T05:51:17.650Z,-3.70
2022-12-19T05:53:45.110Z,-3.70
2022-12-19T05:56:15.216Z,-3.80
2022-12-19T05:58:43.018Z,-3.80
2022-12-19T06:01:11.603Z,-3.80
2022-12-19T06:03:38.602Z,-3.80
2022-12-19T06:06:07.555Z,-3.80
2022-12-19T06:08:34.591Z,-3.90
2022-12-19T06:11:03.844Z,-3.80
2022-12-19T06:13:31.691Z,-3.80
2022-12-19T06:16:02.147Z,-3.80
2022-12-19T06:18:29.882Z,-3.80
2022-12-19T06:21:05.394Z,-3.70
2022-12-19T06:23:35.409Z,-3.60
2022-12-19T06:26:04.548Z,-3.70
2022-12-19T06:28:33.378Z,-3.60
2022-12-19T06:31:02.961Z,-3.60
2022-12-19T06:33:31.133Z,-3.60
2022-12-19T06:36:06.663Z,-3.60
2022-12-19T06:38:34.828Z,-3.60
2022-12-19T06:41:22.656Z,-3.70
2022-12-19T06:43:53.445Z,-3.60
2022-12-19T06:46:20.757Z,-3.60
2022-12-19T06:48:47.977Z,-3.60
2022-12-19T06:51:14.892Z,-3.60
2022-12-19T06:53:42.053Z,-3.70
2022-12-19T06:56:09.366Z,-3.70
2022-12-19T06:58:36.162Z,-3.70
2022-12-19T07:01:03.095Z,-3.60
2022-12-19T07:03:36.295Z,-3.70
2022-12-19T07:06:04.258Z,-3.60
2022-12-19T07:08:31.076Z,-3.60
2022-12-19T07:10:58.621Z,-3.50
2022-12-19T07:13:25.786Z,-3.50
2022-12-19T07:15:53.865Z,-3.50
2022-12-19T07:18:20.917Z,-3.50
2022-12-19T07:20:47.761Z,-3.60
2022-12-19T07:23:17.987Z,-3.60
2022-12-19T07:25:45.266Z,-3.60
2022-12-19T07:28:12.456Z,-3.70
2022-12-19T07:30:39.357Z,-3.70
2022-12-19T07:33:08.881Z,-3.70
2022-12-19T07:35:37.776Z,-3.70
2022-12-19T07:38:06.448Z,-3.70
2022-12-19T07:40:34.159Z,-3.70
2022-12-19T07:43:02.562Z,-3.70
2022-12-19T07:45:30.478Z,-3.80
2022-12-19T07:47:59.877Z,-3.70
2022-12-19T07:50:26.874Z,-3.70
2022-12-19T07:52:53.781Z,-3.70
2022-12-19T07:55:20.594Z,-3.70
2022-12-19T07:57:47.413Z,-3.70
2022-12-19T08:00:14.846Z,-3.60
2022-12-19T08:02:41.867Z,-3.60
2022-12-19T08:05:09.366Z,-3.50
2022-12-19T08:07:36.190Z,-3.50
2022-12-19T08:10:03.377Z,-3.40
2022-12-19T08:12:33.507Z,-3.40
2022-12-19T08:15:00.324Z,-3.40
2022-12-19T08:17:27.295Z,-3.40
2022-12-19T08:19:54.331Z,-3.40
2022-12-19T08:22:21.258Z,-3.40
2022-12-19T08:24:48.245Z,-3.40
2022-12-19T08:27:16.965Z,-3.30
2022-12-19T08:29:44.239Z,-3.30
2022-12-19T08:32:15.666Z,-3.40
2022-12-19T08:34:45.687Z,-3.30
2022-12-19T08:37:12.764Z,-3.30
2022-12-19T08:39:39.624Z,-3.30
2022-12-19T08:42:06.609Z,-3.20
2022-12-19T08:44:33.451Z,-3.20
2022-12-19T08:47:00.509Z,-3.20
2022-12-19T08:49:27.319Z,-3.10
2022-12-19T08:51:54.263Z,-3.10
2022-12-19T08:54:21.113Z,-3.20
2022-12-19T08:56:47.961Z,-3.20
2022-12-19T08:59:18.674Z,-3.30
2022-12-19T09:01:57.209Z,-3.30
2022-12-19T09:06:02.216Z,-3.30
2022-12-19T09:07:11.279Z,-3.30
2022-12-19T09:09:42.260Z,-3.30
2022-12-19T09:12:09.158Z,-3.40
2022-12-19T09:14:36.218Z,-3.40
2022-12-19T09:17:04.589Z,-3.40
2022-12-19T09:19:32.145Z,-3.30
2022-12-19T09:21:59.265Z,-3.40
2022-12-19T09:24:26.382Z,-3.30
2022-12-19T09:26:53.333Z,-3.40
2022-12-19T09:29:21.777Z,-3.30
2022-12-19T09:31:55.645Z,-3.30
2022-12-19T09:34:24.349Z,-3.30
2022-12-19T09:36:59.951Z,-3.30
2022-12-19T09:39:26.845Z,-3.30
2022-12-19T09:42:24.287Z,-3.30
2022-12-19T09:45:05.855Z,-3.20
2022-12-19T09:47:34.466Z,-3.20
2022-12-19T09:50:02.383Z,-3.30
2022-12-19T09:52:33.197Z,-3.30
2022-12-19T09:55:32.523Z,-3.30
2022-12-19T09:58:32.766Z,-3.10
2022-12-19T10:01:04.650Z,-3.10
2022-12-19T10:03:39.697Z,-3.20
2022-12-19T10:07:18.250Z,-3.20
2022-12-19T10:09:54.507Z,-3.20
2022-12-19T10:12:42.674Z,-3.10
2022-12-19T10:15:35.690Z,-3.00
2022-12-19T10:18:26.504Z,-3.00
2022-12-19T10:21:07.657Z,-3.00
2022-12-19T10:23:50.434Z,-3.00
2022-12-19T10:26:19.103Z,-3.10
2022-12-19T10:29:15.486Z,-3.00
2022-12-19T10:31:54.891Z,-3.00
2022-12-19T10:34:32.707Z,-3.00
2022-12-19T10:37:37.671Z,-3.00
2022-12-19T10:40:27.736Z,-3.00
2022-12-19T10:43:30.652Z,-2.90
2022-12-19T10:46:03.611Z,-2.90
2022-12-19T10:48:31.615Z,-2.90
2022-12-19T10:51:03.600Z,-3.00
2022-12-19T10:53:34.012Z,-3.00
2022-12-19T10:56:11.408Z,-3.00
2022-12-19T10:58:43.166Z,-2.90
2022-12-19T11:01:24.843Z,-2.90
2022-12-19T11:04:14.876Z,-2.90
2022-12-19T11:06:51.335Z,-2.90
2022-12-19T11:09:36.804Z,-2.90
2022-12-19T11:13:18.366Z,-2.80
2022-12-19T11:19:54.524Z,-2.80
2022-12-19T11:29:19.207Z,-2.80
2022-12-19T11:29:26.954Z,-2.80
2022-12-19T11:29:54.651Z,-2.80
2022-12-19T11:30:41.545Z,-2.80
2022-12-19T11:32:43.437Z,-2.80
2022-12-19T11:35:17.016Z,-2.90
2022-12-19T11:38:06.723Z,-2.90
2022-12-19T11:40:46.736Z,-2.90
2022-12-19T11:43:45.437Z,-2.80
2022-12-19T11:46:40.701Z,-2.80
2022-12-19T11:49:16.494Z,-2.70
2022-12-19T11:52:04.051Z,-2.70
2022-12-19T11:54:38.061Z,-2.70
2022-12-19T11:57:09.475Z,-2.70
2022-12-19T11:59:38.206Z,-2.70
2022-12-19T12:02:41.878Z,-2.70
2022-12-19T12:05:24.218Z,-2.70
2022-12-19T12:09:58.865Z,-2.60
2022-12-19T12:18:15.394Z,-2.60
2022-12-19T12:22:04.502Z,-2.50
2022-12-19T12:26:47.165Z,-2.50
2022-12-19T12:31:14.855Z,-2.50
2022-12-19T12:31:45.827Z,-2.30
2022-12-19T12:31:53.473Z,-2.40
2022-12-19T12:32:06.049Z,-2.40
2022-12-19T12:35:31.527Z,-2.30
2022-12-19T12:39:08.682Z,-2.30
2022-12-19T12:42:04.882Z,-2.30
2022-12-19T12:44:45.878Z,-2.20
2022-12-19T12:47:17.240Z,-2.20
2022-12-19T12:50:00.823Z,-2.10
2022-12-19T12:52:34.449Z,-2.00
2022-12-19T12:55:02.548Z,-2.00
2022-12-19T12:57:30.126Z,-2.00
2022-12-19T13:00:23.953Z,-2.00
2022-12-19T13:02:55.837Z,-2.00
2022-12-19T13:05:22.887Z,-2.10
2022-12-19T13:07:54.192Z,-2.00
2022-12-19T13:10:24.145Z,-2.10
2022-12-19T13:12:59.854Z,-2.10
2022-12-19T13:15:32.639Z,-2.00
2022-12-19T13:18:12.001Z,-2.10
2022-12-19T13:20:47.549Z,-2.20
2022-12-19T13:23:34.602Z,-2.20
2022-12-19T13:26:01.970Z,-2.30
2022-12-19T13:28:28.882Z,-2.30
2022-12-19T13:31:19.859Z,-2.30
2022-12-19T13:33:56.203Z,-2.30
2022-12-19T13:40:01.194Z,-2.30
2022-12-19T13:40:08.944Z,-2.40
2022-12-19T13:43:10.500Z,-2.30
2022-12-19T13:45:40.690Z,-2.30
2022-12-19T13:48:16.117Z,-2.20
2022-12-19T13:50:47.563Z,-2.20
2022-12-19T13:53:22.735Z,-2.20
2022-12-19T13:55:53.412Z,-2.20
2022-12-19T13:58:28.870Z,-2.20
2022-12-19T14:01:02.773Z,-2.20
2022-12-19T14:03:37.224Z,-2.20
2022-12-19T14:06:30.089Z,-2.10
2022-12-19T14:11:26.841Z,-2.10
2022-12-19T14:13:57.406Z,-2.10
2022-12-19T14:15:28.400Z,-2.20
2022-12-19T14:17:55.303Z,-2.20
2022-12-19T14:21:10.650Z,-2.20
2022-12-19T14:23:15.365Z,-2.30
2022-12-19T14:28:20.037Z,-2.30
2022-12-19T14:28:54.609Z,-2.30
2022-12-19T14:31:23.103Z,-2.30
2022-12-19T14:34:18.476Z,-2.20
2022-12-19T14:36:40.066Z,-2.30
2022-12-19T14:39:22.602Z,-2.30
2022-12-19T14:42:19.474Z,-2.40
2022-12-19T14:52:51.018Z,-2.40
2022-12-19T14:54:02.604Z,-2.40
2022-12-19T14:54:16.266Z,-2.30
2022-12-19T14:54:29.755Z,-2.20
2022-12-19T14:56:54.444Z,-2.30
2022-12-19T14:59:05.664Z,-2.30
2022-12-19T15:01:35.184Z,-2.30
2022-12-19T15:04:52.362Z,-2.30
2022-12-19T15:07:09.792Z,-2.40
2022-12-19T15:11:08.579Z,-2.40
2022-12-19T15:14:49.013Z,-2.40
2022-12-19T15:16:24.829Z,-2.40
2022-12-19T15:18:56.535Z,-2.40
2022-12-19T15:21:23.806Z,-2.40
2022-12-19T15:23:52.013Z,-2.40
2022-12-19T15:26:29.773Z,-2.40
2022-12-19T15:28:57.419Z,-2.40
2022-12-19T15:31:38.689Z,-2.40
2022-12-19T15:37:01.325Z,-2.40
2022-12-19T15:39:29.986Z,-2.40
2022-12-19T15:41:59.420Z,-2.30
2022-12-19T15:44:30.003Z,-2.20
2022-12-19T15:46:57.652Z,-2.20
2022-12-19T15:49:24.604Z,-2.20
2022-12-19T15:51:51.802Z,-2.20
2022-12-19T15:54:48.009Z,-2.20
2022-12-19T15:57:09.285Z,-2.20
2022-12-19T15:59:41.804Z,-2.10
2022-12-19T16:02:16.524Z,-2.10
2022-12-19T16:04:44.617Z,-2.20
2022-12-19T16:07:21.741Z,-2.20
2022-12-19T16:09:49.321Z,-2.10
2022-12-19T16:12:31.740Z,-2.10
2022-12-19T16:15:00.654Z,-2.10
2022-12-19T16:17:31.904Z,-2.00
2022-12-19T16:19:59.096Z,-2.00
2022-12-19T16:22:29.106Z,-1.90
2022-12-19T16:24:57.228Z,-1.90
2022-12-19T16:27:29.153Z,-2.00
2022-12-19T16:29:58.326Z,-2.00
2022-12-19T16:32:25.637Z,-2.00
2022-12-19T16:34:53.695Z,-2.10
2022-12-19T16:37:20.742Z,-2.10
2022-12-19T16:39:47.890Z,-2.20
2022-12-19T16:42:18.424Z,-2.10
2022-12-19T16:44:47.276Z,-2.10
2022-12-19T16:47:16.593Z,-2.10
2022-12-19T16:49:44.697Z,-2.10
2022-12-19T16:52:12.373Z,-2.10
2022-12-19T16:54:39.495Z,-2.10
2022-12-19T16:57:15.908Z,-2.10
2022-12-19T16:59:42.858Z,-2.10
2022-12-19T17:02:39.281Z,-2.00
2022-12-19T17:05:08.013Z,-2.00
2022-12-19T17:07:35.414Z,-2.00
2022-12-19T17:10:02.333Z,-2.00
2022-12-19T17:12:29.422Z,-2.00
2022-12-19T17:14:56.241Z,-1.90
2022-12-19T17:17:23.070Z,-1.90
2022-12-19T17:19:50.225Z,-1.90
2022-12-19T17:22:18.971Z,-2.00
2022-12-19T17:24:47.300Z,-1.90
2022-12-19T17:27:14.550Z,-1.90
2022-12-19T17:29:41.368Z,-2.00
2022-12-19T17:32:10.254Z,-2.00
2022-12-19T17:34:37.201Z,-2.00
2022-12-19T17:37:05.222Z,-2.00
2022-12-19T17:39:33.822Z,-2.00
2022-12-19T17:42:22.493Z,-1.90
2022-12-19T17:44:49.463Z,-1.90
2022-12-19T17:47:19.733Z,-1.90
2022-12-19T17:49:48.002Z,-1.90
2022-12-19T17:52:17.389Z,-1.90
2022-12-19T17:54:44.275Z,-1.90
2022-12-19T17:57:14.612Z,-1.90
2022-12-19T17:59:42.339Z,-1.90
2022-12-19T18:02:25.264Z,-1.90
2022-12-19T18:04:53.005Z,-1.90
2022-12-19T18:07:20.480Z,-1.90
2022-12-19T18:09:48.826Z,-1.80
2022-12-19T18:12:15.739Z,-1.70
2022-12-19T18:14:42.684Z,-1.60
2022-12-19T18:17:12.883Z,-1.70
2022-12-19T18:19:39.980Z,-1.80
2022-12-19T18:22:12.670Z,-1.70
2022-12-19T18:24:39.650Z,-1.70
2022-12-19T18:27:06.720Z,-1.80
2022-12-19T18:29:33.783Z,-1.80
2022-12-19T18:32:01.268Z,-1.80
2022-12-19T18:34:31.344Z,-1.80
2022-12-19T18:36:58.353Z,-1.80
2022-12-19T18:39:28.985Z,-1.80
2022-12-19T18:41:55.946Z,-1.80
2022-12-19T18:44:23.413Z,-1.70
2022-12-19T18:46:51.777Z,-1.70
2022-12-19T18:49:19.389Z,-1.80
2022-12-19T18:51:46.342Z,-1.70
2022-12-19T18:54:15.966Z,-1.70
2022-12-19T18:56:43.283Z,-1.70
2022-12-19T18:59:11.064Z,-1.80
2022-12-19T19:01:43.972Z,-1.80
2022-12-19T19:04:13.229Z,-1.90
2022-12-19T19:06:46.594Z,-1.90
2022-12-19T19:09:19.006Z,-1.90
2022-12-19T19:11:51.692Z,-1.90
2022-12-19T19:14:18.549Z,-1.90
2022-12-19T19:16:46.085Z,-1.90
2022-12-19T19:19:17.722Z,-1.90
2022-12-19T19:21:44.997Z,-1.90
2022-12-19T19:24:22.576Z,-1.90
2022-12-19T19:26:49.760Z,-2.00
2022-12-19T19:29:18.975Z,-2.00
2022-12-19T19:31:47.753Z,-1.90
2022-12-19T19:34:19.535Z,-1.90
2022-12-19T19:36:49.581Z,-1.90
2022-12-19T19:39:17.664Z,-1.90
2022-12-19T19:41:44.638Z,-1.90
2022-12-19T19:44:11.612Z,-1.90
2022-12-19T19:46:40.883Z,-1.90
2022-12-19T19:49:07.836Z,-1.80
2022-12-19T19:51:34.640Z,-1.80
2022-12-19T19:54:01.512Z,-1.80
2022-12-19T19:56:28.368Z,-1.80
2022-12-19T19:58:57.655Z,-1.70
2022-12-19T20:01:24.754Z,-1.80
2022-12-19T20:03:51.702Z,-1.80
2022-12-19T20:06:19.554Z,-1.90
2022-12-19T20:08:46.471Z,-1.80
2022-12-19T20:11:13.738Z,-1.80
2022-12-19T20:13:40.733Z,-1.70
2022-12-19T20:16:16.889Z,-1.70
2022-12-19T20:18:48.513Z,-1.60
2022-12-19T20:21:15.626Z,-1.60
2022-12-19T20:23:43.490Z,-1.60
2022-12-19T20:26:12.441Z,-1.50
2022-12-19T20:28:47.766Z,-1.50
2022-12-19T20:31:16.994Z,-1.60
2022-12-19T20:33:43.925Z,-1.60
2022-12-19T20:36:13.078Z,-1.60
2022-12-19T20:38:40.660Z,-1.60
2022-12-19T20:41:07.739Z,-1.50
2022-12-19T20:43:37.603Z,-1.50
2022-12-19T20:46:07.145Z,-1.50
2022-12-19T20:48:34.116Z,-1.40
2022-12-19T20:51:02.128Z,-1.40
2022-12-19T20:53:28.981Z,-1.30
2022-12-19T20:55:58.872Z,-1.30
2022-12-19T20:58:26.788Z,-1.30
2022-12-19T21:01:02.595Z,-1.40
2022-12-19T21:03:30.485Z,-1.40
2022-12-19T21:05:58.067Z,-1.40
2022-12-19T21:08:26.800Z,-1.40
2022-12-19T21:10:53.915Z,-1.40
2022-12-19T21:13:22.144Z,-1.40
2022-12-19T21:16:09.067Z,-1.40
2022-12-19T21:18:38.165Z,-1.40
2022-12-19T21:21:07.217Z,-1.30
2022-12-19T21:23:35.075Z,-1.30
2022-12-19T21:26:03.308Z,-1.30
2022-12-19T21:28:30.942Z,-1.30
2022-12-19T21:30:57.815Z,-1.20
2022-12-19T21:33:25.915Z,-1.20
2022-12-19T21:35:53.093Z,-1.30
2022-12-19T21:38:20.027Z,-1.30
2022-12-19T21:40:46.948Z,-1.30
2022-12-19T21:43:13.893Z,-1.30
2022-12-19T21:45:41.228Z,-1.30
2022-12-19T21:48:08.103Z,-1.20
2022-12-19T21:50:35.009Z,-1.30
2022-12-19T21:53:01.905Z,-1.20
2022-12-19T21:55:28.746Z,-1.20
2022-12-19T21:57:55.814Z,-1.20
2022-12-19T22:00:22.822Z,-1.20
2022-12-19T22:03:12.464Z,-1.20
2022-12-19T22:05:36.981Z,-1.20
2022-12-19T22:08:04.076Z,-1.20
2022-12-19T22:10:30.874Z,-1.20
2022-12-19T22:12:57.803Z,-1.10
2022-12-19T22:15:24.612Z,-1.20
2022-12-19T22:17:51.461Z,-1.20
2022-12-19T22:20:18.418Z,-1.20
2022-12-19T22:22:45.204Z,-1.30
2022-12-19T22:25:12.796Z,-1.30
2022-12-19T22:27:39.669Z,-1.30
2022-12-19T22:30:11.102Z,-1.30
2022-12-19T22:32:38.295Z,-1.30
2022-12-19T22:35:06.062Z,-1.30
2022-12-19T22:37:32.913Z,-1.30
2022-12-19T22:40:00.405Z,-1.30
2022-12-19T22:42:28.184Z,-1.30
2022-12-19T22:44:54.992Z,-1.30
2022-12-19T22:47:21.833Z,-1.30
2022-12-19T22:49:52.271Z,-1.40
2022-12-19T22:52:19.317Z,-1.40
2022-12-19T22:54:46.179Z,-1.40
2022-12-19T22:57:13.122Z,-1.40
2022-12-19T22:59:40.466Z,-1.40
2022-12-19T23:02:07.567Z,-1.30
2022-12-19T23:04:36.000Z,-1.30
2022-12-19T23:07:02.959Z,-1.40
2022-12-19T23:09:29.869Z,-1.40
2022-12-19T23:11:56.719Z,-1.50
2022-12-19T23:14:23.527Z,-1.50
2022-12-19T23:16:50.591Z,-1.40
2022-12-19T23:19:17.989Z,-1.40
2022-12-19T23:21:44.897Z,-1.40
2022-12-19T23:24:12.538Z,-1.40
2022-12-19T23:26:40.075Z,-1.40
2022-12-19T23:29:13.044Z,-1.40
2022-12-19T23:31:42.252Z,-1.30
2022-12-19T23:34:10.567Z,-1.30
2022-12-19T23:37:09.605Z,-1.30
2022-12-19T23:39:24.626Z,-1.40
2022-12-19T23:41:51.535Z,-1.30
2022-12-19T23:44:18.541Z,-1.30
2022-12-19T23:46:45.442Z,-1.30
2022-12-19T23:49:12.289Z,-1.30
2022-12-19T23:51:39.133Z,-1.40
2022-12-19T23:54:06.345Z,-1.40
2022-12-19T23:56:33.231Z,-1.40
2022-12-19T23:59:01.097Z,-1.40
